sensor_id;sensor_type;location;lat;lon;timestamp;P1;durP1;ratioP1;P2;durP2;ratioP2
2111;SDS011;1062;52.538;13.400;2022-12-11T00:00:20;12.40;;;6.87;;
2111;SDS011;1062;52.538;13.400;2022-12-11T00:02:46;10.93;;;6.87;;
2111;SDS011;1062;52.538;13.400;2022-12-11T00:05:11;9.90;;;7.50;;
2111;SDS011;1062;52.538;13.400;2022-12-11T00:07:37;13.60;;;7.20;;
2111;SDS011;1062;52.538;13.400;2022-12-11T00:10:03;10.30;;;6.70;;
2111;SDS011;1062;52.538;13.400;2022-12-11T00:12:30;11.47;;;7.53;;
2111;SDS011;1062;52.538;13.400;2022-12-11T00:14:55;9.70;;;7.33;;
2111;SDS011;1062;52.538;13.400;2022-12-11T00:17:21;9.17;;;7.63;;
2111;SDS011;1062;52.538;13.400;2022-12-11T00:19:47;17.07;;;7.97;;
2111;SDS011;1062;52.538;13.400;2022-12-11T00:22:12;12.97;;;7.97;;
2111;SDS011;1062;52.538;13.400;2022-12-11T00:24:38;8.40;;;6.40;;
2111;SDS011;1062;52.538;13.400;2022-12-11T00:27:03;16.60;;;7.10;;
2111;SDS011;1062;52.538;13.400;2022-12-11T00:29:29;19.70;;;7.90;;
2111;SDS011;1062;52.538;13.400;2022-12-11T00:31:55;12.33;;;8.47;;
2111;SDS011;1062;52.538;13.400;2022-12-11T00:34:20;13.97;;;10.90;;
2111;SDS011;1062;52.538;13.400;2022-12-11T00:36:46;14.17;;;8.17;;
2111;SDS011;1062;52.538;13.400;2022-12-11T00:39:11;12.63;;;9.23;;
2111;SDS011;1062;52.538;13.400;2022-12-11T00:41:37;13.13;;;8.13;;
2111;SDS011;1062;52.538;13.400;2022-12-11T00:44:03;11.83;;;6.87;;
2111;SDS011;1062;52.538;13.400;2022-12-11T00:46:29;15.00;;;7.70;;
2111;SDS011;1062;52.538;13.400;2022-12-11T00:48:54;10.63;;;6.80;;
2111;SDS011;1062;52.538;13.400;2022-12-11T00:51:20;17.10;;;8.27;;
2111;SDS011;1062;52.538;13.400;2022-12-11T00:53:46;12.70;;;8.87;;
2111;SDS011;1062;52.538;13.400;2022-12-11T00:56:13;8.30;;;7.37;;
2111;SDS011;1062;52.538;13.400;2022-12-11T00:58:43;17.67;;;7.87;;
2111;SDS011;1062;52.538;13.400;2022-12-11T01:01:12;10.97;;;7.00;;
2111;SDS011;1062;52.538;13.400;2022-12-11T01:03:39;12.37;;;7.53;;
2111;SDS011;1062;52.538;13.400;2022-12-11T01:06:05;8.63;;;7.73;;
2111;SDS011;1062;52.538;13.400;2022-12-11T01:08:31;14.77;;;9.13;;
2111;SDS011;1062;52.538;13.400;2022-12-11T01:11:02;12.47;;;8.40;;
2111;SDS011;1062;52.538;13.400;2022-12-11T01:13:29;12.00;;;6.77;;
2111;SDS011;1062;52.538;13.400;2022-12-11T01:15:54;13.67;;;7.80;;
2111;SDS011;1062;52.538;13.400;2022-12-11T01:18:20;11.77;;;7.57;;
2111;SDS011;1062;52.538;13.400;2022-12-11T01:20:46;13.30;;;7.20;;
2111;SDS011;1062;52.538;13.400;2022-12-11T01:23:11;11.10;;;7.90;;
2111;SDS011;1062;52.538;13.400;2022-12-11T01:25:38;9.77;;;7.63;;
2111;SDS011;1062;52.538;13.400;2022-12-11T01:28:04;13.00;;;8.67;;
2111;SDS011;1062;52.538;13.400;2022-12-11T01:30:30;10.90;;;6.93;;
2111;SDS011;1062;52.538;13.400;2022-12-11T01:32:56;9.23;;;7.07;;
2111;SDS011;1062;52.538;13.400;2022-12-11T01:35:22;13.27;;;8.70;;
2111;SDS011;1062;52.538;13.400;2022-12-11T01:37:47;11.30;;;7.90;;
2111;SDS011;1062;52.538;13.400;2022-12-11T01:40:14;11.40;;;7.87;;
2111;SDS011;1062;52.538;13.400;2022-12-11T01:42:41;11.17;;;8.80;;
2111;SDS011;1062;52.538;13.400;2022-12-11T01:48:16;12.20;;;8.30;;
2111;SDS011;1062;52.538;13.400;2022-12-11T01:50:50;13.20;;;8.80;;
2111;SDS011;1062;52.538;13.400;2022-12-11T01:53:27;15.33;;;9.73;;
2111;SDS011;1062;52.538;13.400;2022-12-11T01:56:05;14.07;;;8.60;;
2111;SDS011;1062;52.538;13.400;2022-12-11T01:58:32;14.20;;;8.10;;
2111;SDS011;1062;52.538;13.400;2022-12-11T02:01:04;15.73;;;9.40;;
2111;SDS011;1062;52.538;13.400;2022-12-11T02:03:30;12.17;;;7.03;;
2111;SDS011;1062;52.538;13.400;2022-12-11T02:05:59;15.60;;;10.17;;
2111;SDS011;1062;52.538;13.400;2022-12-11T02:08:25;14.97;;;8.80;;
2111;SDS011;1062;52.538;13.400;2022-12-11T02:11:10;13.90;;;7.33;;
2111;SDS011;1062;52.538;13.400;2022-12-11T02:13:56;13.40;;;6.97;;
2111;SDS011;1062;52.538;13.400;2022-12-11T02:16:44;13.30;;;7.40;;
2111;SDS011;1062;52.538;13.400;2022-12-11T02:28:32;14.77;;;8.83;;
2111;SDS011;1062;52.538;13.400;2022-12-11T02:31:21;15.00;;;7.43;;
2111;SDS011;1062;52.538;13.400;2022-12-11T02:36:44;12.67;;;7.20;;
2111;SDS011;1062;52.538;13.400;2022-12-11T02:39:15;18.57;;;10.03;;
2111;SDS011;1062;52.538;13.400;2022-12-11T02:41:43;15.67;;;9.70;;
2111;SDS011;1062;52.538;13.400;2022-12-11T02:44:13;15.90;;;8.83;;
2111;SDS011;1062;52.538;13.400;2022-12-11T02:46:41;18.17;;;10.70;;
2111;SDS011;1062;52.538;13.400;2022-12-11T02:49:09;15.73;;;9.17;;
2111;SDS011;1062;52.538;13.400;2022-12-11T02:51:39;18.53;;;10.07;;
2111;SDS011;1062;52.538;13.400;2022-12-11T02:54:08;14.07;;;8.03;;
2111;SDS011;1062;52.538;13.400;2022-12-11T02:56:45;20.47;;;9.37;;
2111;SDS011;1062;52.538;13.400;2022-12-11T02:59:18;16.17;;;8.97;;
2111;SDS011;1062;52.538;13.400;2022-12-11T03:01:47;12.13;;;7.43;;
2111;SDS011;1062;52.538;13.400;2022-12-11T03:04:14;11.80;;;8.33;;
2111;SDS011;1062;52.538;13.400;2022-12-11T03:06:41;15.07;;;7.97;;
2111;SDS011;1062;52.538;13.400;2022-12-11T03:09:10;10.40;;;8.13;;
2111;SDS011;1062;52.538;13.400;2022-12-11T03:11:36;18.37;;;8.80;;
2111;SDS011;1062;52.538;13.400;2022-12-11T03:14:02;17.07;;;10.77;;
2111;SDS011;1062;52.538;13.400;2022-12-11T03:16:31;13.20;;;8.70;;
2111;SDS011;1062;52.538;13.400;2022-12-11T03:19:03;9.40;;;7.77;;
2111;SDS011;1062;52.538;13.400;2022-12-11T03:27:02;13.60;;;8.90;;
2111;SDS011;1062;52.538;13.400;2022-12-11T03:29:38;15.67;;;7.77;;
2111;SDS011;1062;52.538;13.400;2022-12-11T03:32:12;11.73;;;8.40;;
2111;SDS011;1062;52.538;13.400;2022-12-11T03:34:44;13.90;;;7.83;;
2111;SDS011;1062;52.538;13.400;2022-12-11T03:37:23;16.60;;;8.70;;
2111;SDS011;1062;52.538;13.400;2022-12-11T03:39:54;21.53;;;9.43;;
2111;SDS011;1062;52.538;13.400;2022-12-11T03:42:23;16.27;;;7.97;;
2111;SDS011;1062;52.538;13.400;2022-12-11T03:44:50;12.40;;;7.00;;
2111;SDS011;1062;52.538;13.400;2022-12-11T03:47:21;12.67;;;7.77;;
2111;SDS011;1062;52.538;13.400;2022-12-11T03:49:49;12.87;;;8.20;;
2111;SDS011;1062;52.538;13.400;2022-12-11T03:52:17;14.47;;;9.03;;
2111;SDS011;1062;52.538;13.400;2022-12-11T03:54:45;15.77;;;7.73;;
2111;SDS011;1062;52.538;13.400;2022-12-11T03:57:14;10.33;;;8.33;;
2111;SDS011;1062;52.538;13.400;2022-12-11T03:59:44;15.43;;;8.27;;
2111;SDS011;1062;52.538;13.400;2022-12-11T04:02:10;14.80;;;9.07;;
2111;SDS011;1062;52.538;13.400;2022-12-11T04:04:37;16.50;;;9.77;;
2111;SDS011;1062;52.538;13.400;2022-12-11T04:07:02;10.90;;;7.90;;
2111;SDS011;1062;52.538;13.400;2022-12-11T04:09:28;16.10;;;9.50;;
2111;SDS011;1062;52.538;13.400;2022-12-11T04:11:54;12.60;;;8.23;;
2111;SDS011;1062;52.538;13.400;2022-12-11T04:14:19;12.03;;;7.70;;
2111;SDS011;1062;52.538;13.400;2022-12-11T04:17:03;15.00;;;8.60;;
2111;SDS011;1062;52.538;13.400;2022-12-11T04:19:29;11.20;;;8.43;;
2111;SDS011;1062;52.538;13.400;2022-12-11T04:22:14;16.23;;;8.97;;
2111;SDS011;1062;52.538;13.400;2022-12-11T04:25:00;15.80;;;8.60;;
2111;SDS011;1062;52.538;13.400;2022-12-11T04:27:26;17.90;;;9.00;;
2111;SDS011;1062;52.538;13.400;2022-12-11T04:30:16;12.07;;;8.40;;
2111;SDS011;1062;52.538;13.400;2022-12-11T04:32:43;11.50;;;8.30;;
2111;SDS011;1062;52.538;13.400;2022-12-11T04:35:09;12.60;;;8.57;;
2111;SDS011;1062;52.538;13.400;2022-12-11T04:37:36;17.70;;;9.73;;
2111;SDS011;1062;52.538;13.400;2022-12-11T04:40:03;12.93;;;7.23;;
2111;SDS011;1062;52.538;13.400;2022-12-11T04:42:30;16.30;;;8.17;;
2111;SDS011;1062;52.538;13.400;2022-12-11T04:44:56;18.23;;;8.13;;
2111;SDS011;1062;52.538;13.400;2022-12-11T04:47:21;9.33;;;7.60;;
2111;SDS011;1062;52.538;13.400;2022-12-11T04:49:47;10.83;;;8.43;;
2111;SDS011;1062;52.538;13.400;2022-12-11T04:52:13;14.53;;;8.93;;
2111;SDS011;1062;52.538;13.400;2022-12-11T04:54:38;10.40;;;8.57;;
2111;SDS011;1062;52.538;13.400;2022-12-11T04:57:04;13.27;;;8.33;;
2111;SDS011;1062;52.538;13.400;2022-12-11T04:59:31;15.40;;;8.67;;
2111;SDS011;1062;52.538;13.400;2022-12-11T05:01:57;13.80;;;7.87;;
2111;SDS011;1062;52.538;13.400;2022-12-11T05:04:23;14.60;;;8.30;;
2111;SDS011;1062;52.538;13.400;2022-12-11T05:06:49;15.23;;;8.43;;
2111;SDS011;1062;52.538;13.400;2022-12-11T05:09:14;13.53;;;7.77;;
2111;SDS011;1062;52.538;13.400;2022-12-11T05:11:40;16.10;;;7.77;;
2111;SDS011;1062;52.538;13.400;2022-12-11T05:14:06;16.77;;;9.10;;
2111;SDS011;1062;52.538;13.400;2022-12-11T05:16:32;16.10;;;10.00;;
2111;SDS011;1062;52.538;13.400;2022-12-11T05:18:58;17.33;;;9.40;;
2111;SDS011;1062;52.538;13.400;2022-12-11T05:21:23;18.80;;;8.07;;
2111;SDS011;1062;52.538;13.400;2022-12-11T05:23:49;15.90;;;8.40;;
2111;SDS011;1062;52.538;13.400;2022-12-11T05:26:16;14.13;;;8.57;;
2111;SDS011;1062;52.538;13.400;2022-12-11T05:28:43;10.17;;;8.17;;
2111;SDS011;1062;52.538;13.400;2022-12-11T05:31:14;16.87;;;10.97;;
2111;SDS011;1062;52.538;13.400;2022-12-11T05:33:42;19.90;;;9.80;;
2111;SDS011;1062;52.538;13.400;2022-12-11T05:36:12;20.83;;;9.17;;
2111;SDS011;1062;52.538;13.400;2022-12-11T05:38:56;15.70;;;11.13;;
2111;SDS011;1062;52.538;13.400;2022-12-11T05:41:23;18.37;;;11.37;;
2111;SDS011;1062;52.538;13.400;2022-12-11T05:43:51;18.57;;;10.60;;
2111;SDS011;1062;52.538;13.400;2022-12-11T05:46:18;14.03;;;8.53;;
2111;SDS011;1062;52.538;13.400;2022-12-11T05:48:45;23.10;;;10.37;;
2111;SDS011;1062;52.538;13.400;2022-12-11T05:51:14;14.13;;;10.53;;
2111;SDS011;1062;52.538;13.400;2022-12-11T05:53:40;15.47;;;9.47;;
2111;SDS011;1062;52.538;13.400;2022-12-11T05:56:09;18.40;;;10.67;;
2111;SDS011;1062;52.538;13.400;2022-12-11T05:58:37;17.50;;;10.50;;
2111;SDS011;1062;52.538;13.400;2022-12-11T06:01:06;15.90;;;9.20;;
2111;SDS011;1062;52.538;13.400;2022-12-11T06:03:36;12.03;;;9.67;;
2111;SDS011;1062;52.538;13.400;2022-12-11T06:06:02;16.77;;;10.47;;
2111;SDS011;1062;52.538;13.400;2022-12-11T06:08:29;13.00;;;9.57;;
2111;SDS011;1062;52.538;13.400;2022-12-11T06:10:55;12.73;;;7.93;;
2111;SDS011;1062;52.538;13.400;2022-12-11T06:13:21;17.97;;;9.97;;
2111;SDS011;1062;52.538;13.400;2022-12-11T06:15:47;19.00;;;8.40;;
2111;SDS011;1062;52.538;13.400;2022-12-11T06:18:13;11.23;;;7.30;;
2111;SDS011;1062;52.538;13.400;2022-12-11T06:20:39;10.80;;;6.70;;
2111;SDS011;1062;52.538;13.400;2022-12-11T06:23:05;11.40;;;7.77;;
2111;SDS011;1062;52.538;13.400;2022-12-11T06:25:30;18.70;;;7.70;;
2111;SDS011;1062;52.538;13.400;2022-12-11T06:27:56;21.87;;;9.50;;
2111;SDS011;1062;52.538;13.400;2022-12-11T06:30:22;19.17;;;8.97;;
2111;SDS011;1062;52.538;13.400;2022-12-11T06:32:48;13.87;;;8.80;;
2111;SDS011;1062;52.538;13.400;2022-12-11T06:35:13;11.23;;;7.83;;
2111;SDS011;1062;52.538;13.400;2022-12-11T06:37:39;16.13;;;6.73;;
2111;SDS011;1062;52.538;13.400;2022-12-11T06:40:05;13.87;;;6.67;;
2111;SDS011;1062;52.538;13.400;2022-12-11T06:42:33;14.50;;;7.10;;
2111;SDS011;1062;52.538;13.400;2022-12-11T06:44:59;8.60;;;6.67;;
2111;SDS011;1062;52.538;13.400;2022-12-11T06:47:25;11.90;;;7.20;;
2111;SDS011;1062;52.538;13.400;2022-12-11T06:49:51;10.47;;;7.83;;
2111;SDS011;1062;52.538;13.400;2022-12-11T06:52:17;10.17;;;7.03;;
2111;SDS011;1062;52.538;13.400;2022-12-11T06:54:44;7.97;;;6.50;;
2111;SDS011;1062;52.538;13.400;2022-12-11T06:57:09;11.37;;;6.23;;
2111;SDS011;1062;52.538;13.400;2022-12-11T06:59:35;10.70;;;7.10;;
2111;SDS011;1062;52.538;13.400;2022-12-11T07:02:01;9.93;;;5.50;;
2111;SDS011;1062;52.538;13.400;2022-12-11T07:04:27;11.20;;;5.63;;
2111;SDS011;1062;52.538;13.400;2022-12-11T07:06:54;11.73;;;6.50;;
2111;SDS011;1062;52.538;13.400;2022-12-11T07:09:21;6.73;;;4.60;;
2111;SDS011;1062;52.538;13.400;2022-12-11T07:11:50;10.83;;;5.80;;
2111;SDS011;1062;52.538;13.400;2022-12-11T07:14:16;12.90;;;7.10;;
2111;SDS011;1062;52.538;13.400;2022-12-11T07:16:41;10.47;;;5.60;;
2111;SDS011;1062;52.538;13.400;2022-12-11T07:19:07;10.63;;;7.60;;
2111;SDS011;1062;52.538;13.400;2022-12-11T07:21:33;14.30;;;5.20;;
2111;SDS011;1062;52.538;13.400;2022-12-11T07:23:59;8.33;;;5.00;;
2111;SDS011;1062;52.538;13.400;2022-12-11T07:26:24;9.80;;;5.30;;
2111;SDS011;1062;52.538;13.400;2022-12-11T07:28:50;9.33;;;6.03;;
2111;SDS011;1062;52.538;13.400;2022-12-11T07:31:22;14.40;;;8.17;;
2111;SDS011;1062;52.538;13.400;2022-12-11T07:33:55;7.97;;;4.63;;
2111;SDS011;1062;52.538;13.400;2022-12-11T07:36:23;10.90;;;4.90;;
2111;SDS011;1062;52.538;13.400;2022-12-11T07:38:50;10.53;;;5.63;;
2111;SDS011;1062;52.538;13.400;2022-12-11T07:41:16;14.17;;;6.27;;
2111;SDS011;1062;52.538;13.400;2022-12-11T07:43:42;5.23;;;4.17;;
2111;SDS011;1062;52.538;13.400;2022-12-11T07:46:12;8.63;;;5.23;;
2111;SDS011;1062;52.538;13.400;2022-12-11T07:48:39;6.83;;;4.87;;
2111;SDS011;1062;52.538;13.400;2022-12-11T07:51:14;10.40;;;5.90;;
2111;SDS011;1062;52.538;13.400;2022-12-11T07:53:41;9.33;;;6.03;;
2111;SDS011;1062;52.538;13.400;2022-12-11T07:56:08;6.77;;;5.80;;
2111;SDS011;1062;52.538;13.400;2022-12-11T07:58:33;8.27;;;6.20;;
2111;SDS011;1062;52.538;13.400;2022-12-11T08:01:00;5.73;;;3.60;;
2111;SDS011;1062;52.538;13.400;2022-12-11T08:03:25;6.43;;;4.07;;
2111;SDS011;1062;52.538;13.400;2022-12-11T08:05:51;10.40;;;5.87;;
2111;SDS011;1062;52.538;13.400;2022-12-11T08:08:17;6.53;;;5.40;;
2111;SDS011;1062;52.538;13.400;2022-12-11T08:10:43;10.80;;;5.93;;
2111;SDS011;1062;52.538;13.400;2022-12-11T08:13:10;10.07;;;5.83;;
2111;SDS011;1062;52.538;13.400;2022-12-11T08:15:35;7.50;;;5.20;;
2111;SDS011;1062;52.538;13.400;2022-12-11T08:18:02;11.20;;;6.67;;
2111;SDS011;1062;52.538;13.400;2022-12-11T08:20:29;5.60;;;3.97;;
2111;SDS011;1062;52.538;13.400;2022-12-11T08:22:55;6.33;;;4.90;;
2111;SDS011;1062;52.538;13.400;2022-12-11T08:25:21;7.50;;;5.23;;
2111;SDS011;1062;52.538;13.400;2022-12-11T08:27:47;5.80;;;4.40;;
2111;SDS011;1062;52.538;13.400;2022-12-11T08:30:13;9.10;;;5.30;;
2111;SDS011;1062;52.538;13.400;2022-12-11T08:32:39;7.27;;;5.03;;
2111;SDS011;1062;52.538;13.400;2022-12-11T08:35:05;9.90;;;5.97;;
2111;SDS011;1062;52.538;13.400;2022-12-11T08:37:32;6.17;;;4.23;;
2111;SDS011;1062;52.538;13.400;2022-12-11T08:39:58;8.40;;;4.70;;
2111;SDS011;1062;52.538;13.400;2022-12-11T08:42:24;8.00;;;5.57;;
2111;SDS011;1062;52.538;13.400;2022-12-11T08:44:49;7.87;;;5.90;;
2111;SDS011;1062;52.538;13.400;2022-12-11T08:47:15;8.67;;;5.23;;
2111;SDS011;1062;52.538;13.400;2022-12-11T08:49:44;10.13;;;6.30;;
2111;SDS011;1062;52.538;13.400;2022-12-11T08:52:10;13.77;;;6.57;;
2111;SDS011;1062;52.538;13.400;2022-12-11T08:54:36;8.90;;;5.97;;
2111;SDS011;1062;52.538;13.400;2022-12-11T08:57:02;9.93;;;5.50;;
2111;SDS011;1062;52.538;13.400;2022-12-11T08:59:28;11.30;;;5.97;;
2111;SDS011;1062;52.538;13.400;2022-12-11T09:01:54;6.67;;;3.90;;
2111;SDS011;1062;52.538;13.400;2022-12-11T09:04:20;9.63;;;6.93;;
2111;SDS011;1062;52.538;13.400;2022-12-11T09:06:46;5.83;;;4.87;;
2111;SDS011;1062;52.538;13.400;2022-12-11T09:09:12;12.17;;;4.70;;
2111;SDS011;1062;52.538;13.400;2022-12-11T09:11:38;8.50;;;5.50;;
2111;SDS011;1062;52.538;13.400;2022-12-11T09:14:04;16.00;;;7.53;;
2111;SDS011;1062;52.538;13.400;2022-12-11T09:16:30;5.53;;;4.47;;
2111;SDS011;1062;52.538;13.400;2022-12-11T09:18:57;8.03;;;5.47;;
2111;SDS011;1062;52.538;13.400;2022-12-11T09:21:24;8.20;;;5.27;;
2111;SDS011;1062;52.538;13.400;2022-12-11T09:23:52;7.70;;;4.87;;
2111;SDS011;1062;52.538;13.400;2022-12-11T09:26:20;9.70;;;4.33;;
2111;SDS011;1062;52.538;13.400;2022-12-11T09:28:46;10.70;;;5.40;;
2111;SDS011;1062;52.538;13.400;2022-12-11T09:31:16;8.47;;;5.10;;
2111;SDS011;1062;52.538;13.400;2022-12-11T09:33:44;6.00;;;4.50;;
2111;SDS011;1062;52.538;13.400;2022-12-11T09:36:10;8.23;;;5.03;;
2111;SDS011;1062;52.538;13.400;2022-12-11T09:38:36;7.43;;;6.10;;
2111;SDS011;1062;52.538;13.400;2022-12-11T09:46:43;10.60;;;4.73;;
2111;SDS011;1062;52.538;13.400;2022-12-11T09:51:53;6.20;;;4.50;;
2111;SDS011;1062;52.538;13.400;2022-12-11T09:54:35;6.83;;;5.63;;
2111;SDS011;1062;52.538;13.400;2022-12-11T09:59:38;8.37;;;5.37;;
2111;SDS011;1062;52.538;13.400;2022-12-11T10:02:30;7.90;;;5.00;;
2111;SDS011;1062;52.538;13.400;2022-12-11T10:07:56;7.40;;;5.30;;
2111;SDS011;1062;52.538;13.400;2022-12-11T10:10:36;5.33;;;4.00;;
2111;SDS011;1062;52.538;13.400;2022-12-11T10:15:56;6.63;;;5.23;;
2111;SDS011;1062;52.538;13.400;2022-12-11T10:18:42;6.27;;;5.37;;
2111;SDS011;1062;52.538;13.400;2022-12-11T10:21:08;7.30;;;5.67;;
2111;SDS011;1062;52.538;13.400;2022-12-11T10:23:45;9.60;;;5.43;;
2111;SDS011;1062;52.538;13.400;2022-12-11T10:26:19;10.40;;;6.80;;
2111;SDS011;1062;52.538;13.400;2022-12-11T10:28:46;11.30;;;5.83;;
2111;SDS011;1062;52.538;13.400;2022-12-11T10:36:28;7.87;;;5.67;;
2111;SDS011;1062;52.538;13.400;2022-12-11T10:38:55;9.80;;;5.93;;
2111;SDS011;1062;52.538;13.400;2022-12-11T10:41:23;12.93;;;6.00;;
2111;SDS011;1062;52.538;13.400;2022-12-11T10:44:00;7.90;;;5.83;;
2111;SDS011;1062;52.538;13.400;2022-12-11T10:46:41;6.70;;;4.00;;
2111;SDS011;1062;52.538;13.400;2022-12-11T10:49:17;7.83;;;5.97;;
2111;SDS011;1062;52.538;13.400;2022-12-11T10:51:45;9.83;;;6.40;;
2111;SDS011;1062;52.538;13.400;2022-12-11T10:56:57;11.30;;;6.53;;
2111;SDS011;1062;52.538;13.400;2022-12-11T11:05:12;7.33;;;5.30;;
2111;SDS011;1062;52.538;13.400;2022-12-11T11:08:01;13.90;;;6.70;;
2111;SDS011;1062;52.538;13.400;2022-12-11T11:10:47;8.30;;;4.60;;
2111;SDS011;1062;52.538;13.400;2022-12-11T11:13:22;10.27;;;5.10;;
2111;SDS011;1062;52.538;13.400;2022-12-11T11:15:56;7.10;;;5.60;;
2111;SDS011;1062;52.538;13.400;2022-12-11T11:18:36;13.00;;;7.20;;
2111;SDS011;1062;52.538;13.400;2022-12-11T11:21:04;11.50;;;7.23;;
2111;SDS011;1062;52.538;13.400;2022-12-11T11:23:31;14.33;;;8.00;;
2111;SDS011;1062;52.538;13.400;2022-12-11T11:26:01;10.77;;;7.40;;
2111;SDS011;1062;52.538;13.400;2022-12-11T11:28:33;12.00;;;6.53;;
2111;SDS011;1062;52.538;13.400;2022-12-11T11:31:30;8.17;;;5.60;;
2111;SDS011;1062;52.538;13.400;2022-12-11T11:34:02;10.67;;;6.83;;
2111;SDS011;1062;52.538;13.400;2022-12-11T11:36:32;12.50;;;6.37;;
2111;SDS011;1062;52.538;13.400;2022-12-11T11:39:06;8.63;;;6.43;;
2111;SDS011;1062;52.538;13.400;2022-12-11T11:44:18;8.33;;;5.77;;
2111;SDS011;1062;52.538;13.400;2022-12-11T11:47:33;9.27;;;6.00;;
2111;SDS011;1062;52.538;13.400;2022-12-11T11:50:05;11.70;;;6.60;;
2111;SDS011;1062;52.538;13.400;2022-12-11T11:58:14;11.87;;;7.07;;
2111;SDS011;1062;52.538;13.400;2022-12-11T12:00:43;12.53;;;7.40;;
2111;SDS011;1062;52.538;13.400;2022-12-11T12:03:13;11.73;;;6.90;;
2111;SDS011;1062;52.538;13.400;2022-12-11T12:05:54;12.30;;;7.73;;
2111;SDS011;1062;52.538;13.400;2022-12-11T12:08:50;10.37;;;6.63;;
2111;SDS011;1062;52.538;13.400;2022-12-11T12:16:44;11.67;;;7.13;;
2111;SDS011;1062;52.538;13.400;2022-12-11T12:19:33;14.30;;;7.43;;
2111;SDS011;1062;52.538;13.400;2022-12-11T12:30:23;14.07;;;7.10;;
2111;SDS011;1062;52.538;13.400;2022-12-11T12:40:47;9.03;;;7.10;;
2111;SDS011;1062;52.538;13.400;2022-12-11T12:48:46;10.47;;;6.67;;
2111;SDS011;1062;52.538;13.400;2022-12-11T12:51:13;10.80;;;7.03;;
2111;SDS011;1062;52.538;13.400;2022-12-11T12:53:40;11.67;;;6.77;;
2111;SDS011;1062;52.538;13.400;2022-12-11T12:56:12;19.13;;;7.40;;
2111;SDS011;1062;52.538;13.400;2022-12-11T12:58:40;14.63;;;8.00;;
2111;SDS011;1062;52.538;13.400;2022-12-11T13:01:18;11.07;;;7.63;;
2111;SDS011;1062;52.538;13.400;2022-12-11T13:09:17;9.13;;;6.17;;
2111;SDS011;1062;52.538;13.400;2022-12-11T13:11:46;13.50;;;7.63;;
2111;SDS011;1062;52.538;13.400;2022-12-11T13:16:46;9.20;;;6.37;;
2111;SDS011;1062;52.538;13.400;2022-12-11T13:19:25;14.50;;;8.13;;
2111;SDS011;1062;52.538;13.400;2022-12-11T13:24:44;10.20;;;7.77;;
2111;SDS011;1062;52.538;13.400;2022-12-11T13:27:21;11.80;;;7.47;;
2111;SDS011;1062;52.538;13.400;2022-12-11T13:30:07;9.70;;;5.83;;
2111;SDS011;1062;52.538;13.400;2022-12-11T13:32:57;14.00;;;6.97;;
2111;SDS011;1062;52.538;13.400;2022-12-11T13:35:27;17.77;;;8.00;;
2111;SDS011;1062;52.538;13.400;2022-12-11T13:37:54;10.07;;;7.60;;
2111;SDS011;1062;52.538;13.400;2022-12-11T13:40:27;8.30;;;5.00;;
2111;SDS011;1062;52.538;13.400;2022-12-11T13:43:14;9.47;;;7.30;;
2111;SDS011;1062;52.538;13.400;2022-12-11T13:45:47;16.80;;;8.40;;
2111;SDS011;1062;52.538;13.400;2022-12-11T13:48:20;10.67;;;6.20;;
2111;SDS011;1062;52.538;13.400;2022-12-11T13:50:50;14.80;;;7.97;;
2111;SDS011;1062;52.538;13.400;2022-12-11T13:53:18;11.83;;;5.93;;
2111;SDS011;1062;52.538;13.400;2022-12-11T13:55:45;7.70;;;6.37;;
2111;SDS011;1062;52.538;13.400;2022-12-11T13:58:19;12.20;;;7.17;;
2111;SDS011;1062;52.538;13.400;2022-12-11T14:01:06;12.00;;;6.97;;
2111;SDS011;1062;52.538;13.400;2022-12-11T14:03:37;14.57;;;6.63;;
2111;SDS011;1062;52.538;13.400;2022-12-11T14:06:04;9.13;;;6.60;;
2111;SDS011;1062;52.538;13.400;2022-12-11T14:08:35;11.83;;;7.67;;
2111;SDS011;1062;52.538;13.400;2022-12-11T14:11:03;11.40;;;7.37;;
2111;SDS011;1062;52.538;13.400;2022-12-11T14:13:34;17.17;;;7.27;;
2111;SDS011;1062;52.538;13.400;2022-12-11T14:16:03;10.67;;;7.70;;
2111;SDS011;1062;52.538;13.400;2022-12-11T14:18:30;10.20;;;6.90;;
2111;SDS011;1062;52.538;13.400;2022-12-11T14:21:00;12.20;;;5.63;;
2111;SDS011;1062;52.538;13.400;2022-12-11T14:23:31;13.10;;;6.57;;
2111;SDS011;1062;52.538;13.400;2022-12-11T14:26:03;11.73;;;6.13;;
2111;SDS011;1062;52.538;13.400;2022-12-11T14:28:46;12.57;;;8.20;;
2111;SDS011;1062;52.538;13.400;2022-12-11T14:31:13;14.30;;;7.53;;
2111;SDS011;1062;52.538;13.400;2022-12-11T14:33:53;12.63;;;7.10;;
2111;SDS011;1062;52.538;13.400;2022-12-11T14:36:23;11.47;;;6.77;;
2111;SDS011;1062;52.538;13.400;2022-12-11T14:38:56;9.50;;;7.40;;
2111;SDS011;1062;52.538;13.400;2022-12-11T14:44:14;11.43;;;7.30;;
2111;SDS011;1062;52.538;13.400;2022-12-11T14:46:43;11.37;;;7.97;;
2111;SDS011;1062;52.538;13.400;2022-12-11T14:49:19;8.57;;;6.23;;
2111;SDS011;1062;52.538;13.400;2022-12-11T14:51:45;9.10;;;6.60;;
2111;SDS011;1062;52.538;13.400;2022-12-11T14:54:15;8.87;;;6.60;;
2111;SDS011;1062;52.538;13.400;2022-12-11T14:56:53;11.40;;;7.17;;
2111;SDS011;1062;52.538;13.400;2022-12-11T14:59:20;15.40;;;8.10;;
2111;SDS011;1062;52.538;13.400;2022-12-11T15:01:58;12.23;;;8.00;;
2111;SDS011;1062;52.538;13.400;2022-12-11T15:04:44;13.00;;;7.97;;
2111;SDS011;1062;52.538;13.400;2022-12-11T15:07:21;8.57;;;6.40;;
2111;SDS011;1062;52.538;13.400;2022-12-11T15:09:49;15.17;;;8.50;;
2111;SDS011;1062;52.538;13.400;2022-12-11T15:12:16;9.10;;;7.10;;
2111;SDS011;1062;52.538;13.400;2022-12-11T15:14:59;21.13;;;8.03;;
2111;SDS011;1062;52.538;13.400;2022-12-11T15:17:27;10.50;;;7.47;;
2111;SDS011;1062;52.538;13.400;2022-12-11T15:20:02;8.40;;;6.30;;
2111;SDS011;1062;52.538;13.400;2022-12-11T15:22:31;10.67;;;6.47;;
2111;SDS011;1062;52.538;13.400;2022-12-11T15:24:57;12.57;;;7.43;;
2111;SDS011;1062;52.538;13.400;2022-12-11T15:29:59;11.73;;;6.00;;
2111;SDS011;1062;52.538;13.400;2022-12-11T15:32:25;9.23;;;7.47;;
2111;SDS011;1062;52.538;13.400;2022-12-11T15:34:52;9.07;;;6.17;;
2111;SDS011;1062;52.538;13.400;2022-12-11T15:39:49;14.53;;;7.70;;
2111;SDS011;1062;52.538;13.400;2022-12-11T15:44:55;14.17;;;7.30;;
2111;SDS011;1062;52.538;13.400;2022-12-11T15:47:25;11.60;;;6.73;;
2111;SDS011;1062;52.538;13.400;2022-12-11T15:49:53;10.77;;;6.50;;
2111;SDS011;1062;52.538;13.400;2022-12-11T15:52:22;8.83;;;6.47;;
2111;SDS011;1062;52.538;13.400;2022-12-11T15:54:47;10.70;;;6.60;;
2111;SDS011;1062;52.538;13.400;2022-12-11T15:57:15;13.80;;;8.70;;
2111;SDS011;1062;52.538;13.400;2022-12-11T15:59:44;11.53;;;7.23;;
2111;SDS011;1062;52.538;13.400;2022-12-11T16:02:12;12.47;;;7.27;;
2111;SDS011;1062;52.538;13.400;2022-12-11T16:04:38;10.53;;;6.57;;
2111;SDS011;1062;52.538;13.400;2022-12-11T16:07:05;12.70;;;7.37;;
2111;SDS011;1062;52.538;13.400;2022-12-11T16:09:42;11.30;;;6.20;;
2111;SDS011;1062;52.538;13.400;2022-12-11T16:12:08;10.67;;;6.80;;
2111;SDS011;1062;52.538;13.400;2022-12-11T16:14:34;7.23;;;5.60;;
2111;SDS011;1062;52.538;13.400;2022-12-11T16:17:04;12.17;;;7.60;;
2111;SDS011;1062;52.538;13.400;2022-12-11T16:19:33;11.13;;;6.87;;
2111;SDS011;1062;52.538;13.400;2022-12-11T16:21:59;9.60;;;6.80;;
2111;SDS011;1062;52.538;13.400;2022-12-11T16:24:25;18.97;;;9.23;;
2111;SDS011;1062;52.538;13.400;2022-12-11T16:26:51;10.63;;;6.77;;
2111;SDS011;1062;52.538;13.400;2022-12-11T16:29:16;16.60;;;7.90;;
2111;SDS011;1062;52.538;13.400;2022-12-11T16:31:42;11.17;;;6.90;;
2111;SDS011;1062;52.538;13.400;2022-12-11T16:34:08;13.27;;;8.20;;
2111;SDS011;1062;52.538;13.400;2022-12-11T16:36:36;11.37;;;6.97;;
2111;SDS011;1062;52.538;13.400;2022-12-11T16:39:02;10.37;;;7.80;;
2111;SDS011;1062;52.538;13.400;2022-12-11T16:41:28;13.73;;;7.37;;
2111;SDS011;1062;52.538;13.400;2022-12-11T16:43:54;15.17;;;7.97;;
2111;SDS011;1062;52.538;13.400;2022-12-11T16:46:20;12.17;;;6.57;;
2111;SDS011;1062;52.538;13.400;2022-12-11T16:48:46;9.97;;;7.47;;
2111;SDS011;1062;52.538;13.400;2022-12-11T16:51:12;17.47;;;10.50;;